Time;durP1;ratioP1;P1;durP2;ratioP2;P2;SDS_P1;SDS_P2;PMS_P1;PMS_P2;Temp;Humidity;BMP_temperature;BMP_pressure;BME280_temperature;BME280_humidity;BME280_pressure;Samples;Min_cycle;Max_cycle;Signal;HPM_P1;HPM_P2
2023/06/01 00:01:48;;;;;;;2.08;1.70;;;16.10;86.60;;;;;;5021894;28;20030;-64
2023/06/01 00:04:14;;;;;;;4.05;1.42;;;16.10;87.00;;;;;;5018579;28;20089;-64
2023/06/01 00:06:40;;;;;;;3.92;1.27;;;16.10;87.40;;;;;;5019241;28;20029;-64
2023/06/01 00:09:07;;;;;;;2.42;1.48;;;16.10;87.90;;;;;;5011530;28;20521;-64
2023/06/01 00:11:33;;;;;;;1.60;1.25;;;16.00;88.30;;;;;;5018301;28;20048;-64
2023/06/01 00:13:59;;;;;;;3.38;1.50;;;16.00;88.70;;;;;;5022922;28;20125;-64
2023/06/01 00:16:25;;;;;;;2.25;1.25;;;16.00;89.00;;;;;;5012460;28;20083;-64
2023/06/01 00:18:52;;;;;;;3.63;1.60;;;16.00;89.60;;;;;;5017347;28;20022;-64
2023/06/01 00:21:19;;;;;;;2.65;1.33;;;16.00;90.00;;;;;;5014076;28;20451;-64
2023/06/01 00:23:45;;;;;;;2.85;1.60;;;16.00;90.20;;;;;;5015371;28;20075;-64
2023/06/01 00:26:12;;;;;;;2.88;1.67;;;16.00;90.30;;;;;;5001181;28;20025;-64
2023/06/01 00:28:38;;;;;;;2.90;1.58;;;16.00;90.50;;;;;;5002527;28;20136;-64
2023/06/01 00:31:04;;;;;;;4.43;1.60;;;16.00;90.60;;;;;;4996652;28;20038;-64
2023/06/01 00:33:30;;;;;;;4.50;1.70;;;15.90;90.90;;;;;;5014362;28;20068;-64
2023/06/01 00:35:56;;;;;;;4.13;1.67;;;15.90;91.10;;;;;;5000623;28;20026;-63
2023/06/01 00:38:22;;;;;;;3.33;1.55;;;15.80;91.40;;;;;;5017626;28;21078;-64
2023/06/01 00:40:50;;;;;;;2.63;1.65;;;15.80;91.60;;;;;;5018606;28;20029;-64
2023/06/01 00:43:17;;;;;;;4.05;1.58;;;15.80;91.90;;;;;;4999624;28;20034;-64
2023/06/01 00:45:43;;;;;;;7.93;1.77;;;15.80;92.20;;;;;;5016178;28;20021;-65
2023/06/01 00:48:09;;;;;;;2.28;1.38;;;15.70;92.40;;;;;;5010695;28;20065;-65
2023/06/01 00:50:35;;;;;;;3.28;1.60;;;15.70;92.70;;;;;;5022153;28;20071;-63
2023/06/01 00:53:05;;;;;;;5.13;1.90;;;15.70;92.80;;;;;;5000955;28;20025;-64
2023/06/01 00:55:31;;;;;;;3.40;1.73;;;15.70;93.20;;;;;;5000202;28;20850;-64
2023/06/01 00:57:57;;;;;;;3.47;1.30;;;15.60;93.40;;;;;;4997861;28;20033;-64
2023/06/01 01:00:26;;;;;;;3.72;1.60;;;15.60;93.60;;;;;;5014120;28;20034;-64
2023/06/01 01:02:52;;;;;;;3.45;1.88;;;15.60;93.70;;;;;;5018484;28;20079;-64
2023/06/01 01:05:19;;;;;;;7.95;2.20;;;15.60;93.90;;;;;;5020077;28;20053;-64
2023/06/01 01:07:58;;;;;;;4.90;1.90;;;15.60;94.10;;;;;;5018320;28;20503;-64
2023/06/01 01:10:32;;;;;;;3.00;1.60;;;15.60;94.40;;;;;;5015586;28;20544;-64
2023/06/01 01:13:27;;;;;;;2.60;1.60;;;15.60;94.10;;;;;;4995686;28;20045;-64
2023/06/01 01:16:02;;;;;;;3.88;1.60;;;15.60;94.20;;;;;;5003512;28;20136;-64
2023/06/01 01:18:42;;;;;;;4.28;2.17;;;15.60;94.70;;;;;;5001218;28;20670;-64
2023/06/01 01:21:22;;;;;;;4.22;2.17;;;15.50;94.50;;;;;;4999340;28;20036;-64
2023/06/01 01:24:07;;;;;;;4.72;2.28;;;15.60;94.60;;;;;;4997806;28;20030;-63
2023/06/01 01:26:55;;;;;;;5.30;2.25;;;15.50;94.60;;;;;;4996859;28;20028;-64
2023/06/01 01:29:25;;;;;;;4.05;2.33;;;15.50;94.50;;;;;;4999059;28;20040;-64
2023/06/01 01:31:54;;;;;;;2.85;1.92;;;15.50;94.40;;;;;;5015873;28;20036;-64
2023/06/01 01:34:20;;;;;;;2.70;2.13;;;15.40;94.60;;;;;;4994797;28;20117;-64
2023/06/01 01:36:47;;;;;;;4.82;2.05;;;15.40;94.80;;;;;;4996439;28;20757;-64
2023/06/01 01:39:12;;;;;;;5.82;2.70;;;15.40;94.80;;;;;;4990729;28;20022;-64
2023/06/01 01:41:38;;;;;;;5.57;2.72;;;15.40;94.90;;;;;;5018217;28;20623;-64
2023/06/01 01:44:05;;;;;;;5.88;2.20;;;15.40;94.90;;;;;;5001982;28;20021;-64
2023/06/01 01:46:54;;;;;;;5.00;2.13;;;15.30;94.90;;;;;;5000102;28;20029;-64
2023/06/01 01:49:23;;;;;;;5.47;2.45;;;15.30;95.10;;;;;;5016926;28;20040;-64
2023/06/01 01:52:02;;;;;;;2.95;2.47;;;15.30;95.20;;;;;;5013991;28;20037;-64
2023/06/01 01:54:31;;;;;;;3.55;2.50;;;15.20;95.30;;;;;;5020683;28;20130;-63
2023/06/01 01:57:00;;;;;;;5.50;2.60;;;15.20;95.50;;;;;;5015679;28;20032;-64
2023/06/01 01:59:26;;;;;;;5.25;2.95;;;15.20;95.70;;;;;;4998673;28;20472;-65
2023/06/01 02:01:53;;;;;;;5.35;2.80;;;15.10;95.70;;;;;;4997919;28;20049;-64
2023/06/01 02:04:19;;;;;;;4.82;2.97;;;15.10;95.80;;;;;;4994568;28;20033;-64
2023/06/01 02:06:47;;;;;;;6.22;3.15;;;15.10;95.80;;;;;;5017665;28;20400;-65
2023/06/01 02:09:13;;;;;;;7.15;2.60;;;15.00;95.90;;;;;;4999970;28;20148;-64
2023/06/01 02:11:39;;;;;;;7.55;2.95;;;15.00;95.90;;;;;;5017400;28;20536;-64
2023/06/01 02:14:05;;;;;;;5.30;2.65;;;15.00;95.90;;;;;;5015787;28;20033;-64
2023/06/01 02:16:30;;;;;;;7.93;3.15;;;14.90;96.00;;;;;;5011996;28;20034;-64
2023/06/01 02:18:59;;;;;;;5.03;2.80;;;14.90;96.10;;;;;;5013338;28;20045;-64
2023/06/01 02:21:26;;;;;;;6.90;3.38;;;14.90;96.20;;;;;;5000204;28;20029;-64
2023/06/01 02:23:52;;;;;;;5.43;2.83;;;14.80;96.30;;;;;;5017328;28;20029;-65
2023/06/01 02:26:18;;;;;;;6.72;3.40;;;14.70;96.40;;;;;;4995925;28;20497;-63
2023/06/01 02:28:44;;;;;;;8.13;3.58;;;14.70;96.50;;;;;;5013091;28;20032;-64
2023/06/01 02:31:10;;;;;;;4.70;2.67;;;14.60;96.80;;;;;;4991946;28;20029;-63
2023/06/01 02:33:37;;;;;;;4.82;3.00;;;14.60;96.80;;;;;;5021145;28;20033;-64
2023/06/01 02:36:03;;;;;;;7.97;3.88;;;14.60;97.00;;;;;;4999042;28;20033;-64
2023/06/01 02:38:29;;;;;;;9.52;4.60;;;14.60;97.00;;;;;;4997144;28;20044;-64
2023/06/01 02:40:55;;;;;;;8.15;4.22;;;14.50;97.30;;;;;;4995528;28;20128;-64
2023/06/01 02:43:21;;;;;;;9.45;5.18;;;14.40;97.70;;;;;;4995099;28;20026;-64
2023/06/01 02:45:47;;;;;;;9.35;4.57;;;14.40;97.80;;;;;;5019891;28;20820;-64
2023/06/01 02:48:12;;;;;;;9.32;4.35;;;14.40;97.90;;;;;;5003799;28;20025;-64
2023/06/01 02:50:39;;;;;;;8.65;3.85;;;14.40;97.80;;;;;;5020593;28;20025;-64
2023/06/01 02:53:05;;;;;;;9.80;4.63;;;14.40;97.60;;;;;;4994602;28;20103;-64
2023/06/01 02:55:31;;;;;;;9.50;4.78;;;14.40;97.90;;;;;;5016118;28;20029;-64
2023/06/01 02:58:23;;;;;;;11.20;4.45;;;14.40;98.10;;;;;;5018344;28;20711;-64
2023/06/01 03:01:04;;;;;;;13.63;4.90;;;14.30;98.00;;;;;;5017029;28;20033;-64
2023/06/01 03:03:31;;;;;;;8.32;4.80;;;14.30;98.10;;;;;;5001053;28;20025;-64
2023/06/01 03:05:57;;;;;;;8.50;4.50;;;14.30;98.10;;;;;;4998405;28;20033;-64
2023/06/01 03:08:55;;;;;;;11.50;5.10;;;14.30;98.20;;;;;;4990983;28;20033;-64
2023/06/01 03:11:44;;;;;;;11.88;5.57;;;14.30;98.40;;;;;;4998422;28;20033;-64
2023/06/01 03:14:10;;;;;;;11.43;5.30;;;14.20;98.50;;;;;;5018903;28;20025;-64
2023/06/01 03:16:36;;;;;;;10.35;5.68;;;14.20;98.70;;;;;;5019515;28;20382;-64
2023/06/01 03:19:10;;;;;;;17.02;6.38;;;14.20;98.70;;;;;;4996702;28;20038;-64
2023/06/01 03:21:37;;;;;;;10.32;6.50;;;14.20;98.80;;;;;;5005306;28;20037;-63
2023/06/01 03:24:03;;;;;;;13.60;5.32;;;14.20;98.90;;;;;;5001345;28;20080;-63
2023/06/01 03:26:28;;;;;;;11.55;5.90;;;14.20;99.00;;;;;;5021626;28;20025;-64
2023/06/01 03:28:55;;;;;;;11.63;4.95;;;14.20;98.90;;;;;;5018755;28;20076;-63
2023/06/01 03:31:21;;;;;;;12.07;6.25;;;14.20;98.90;;;;;;5016051;28;20061;-63
2023/06/01 03:33:48;;;;;;;11.48;6.43;;;14.30;99.10;;;;;;4997139;28;20111;-64
2023/06/01 03:36:14;;;;;;;11.10;5.85;;;14.30;99.00;;;;;;4998309;28;20038;-65
2023/06/01 03:38:41;;;;;;;11.73;6.07;;;14.40;99.00;;;;;;5005168;28;20095;-64
2023/06/01 03:41:07;;;;;;;12.63;7.25;;;14.40;99.00;;;;;;5000376;28;20101;-63
2023/06/01 03:43:33;;;;;;;14.80;6.43;;;14.50;98.90;;;;;;5019244;28;20029;-64
2023/06/01 03:45:59;;;;;;;15.45;7.25;;;14.50;98.60;;;;;;4997179;28;20032;-64
2023/06/01 03:48:25;;;;;;;14.23;6.25;;;14.50;98.40;;;;;;4999960;28;20401;-64
2023/06/01 03:50:51;;;;;;;12.50;7.40;;;14.60;98.40;;;;;;4998632;28;20025;-64
2023/06/01 03:53:17;;;;;;;12.98;6.57;;;14.60;98.50;;;;;;5000279;28;20026;-64
2023/06/01 03:55:43;;;;;;;13.57;7.32;;;14.70;98.50;;;;;;5017404;28;20028;-64
2023/06/01 03:58:23;;;;;;;11.02;7.07;;;14.70;98.50;;;;;;4998622;28;20022;-64
2023/06/01 04:00:49;;;;;;;12.63;6.07;;;14.70;98.20;;;;;;5015747;28;20060;-64
2023/06/01 04:03:21;;;;;;;17.10;7.80;;;14.80;98.10;;;;;;5003437;28;20488;-63
2023/06/01 04:05:49;;;;;;;12.93;6.82;;;14.80;98.10;;;;;;5002518;28;20060;-64
2023/06/01 04:08:16;;;;;;;10.68;6.32;;;14.80;98.10;;;;;;5017644;28;20820;-63
2023/06/01 04:10:42;;;;;;;9.82;6.50;;;14.80;97.90;;;;;;5017455;28;20044;-64
2023/06/01 04:13:09;;;;;;;11.90;6.13;;;14.80;97.80;;;;;;4999301;28;20041;-64
2023/06/01 04:15:35;;;;;;;16.88;6.57;;;14.80;97.90;;;;;;5024291;28;20033;-64
2023/06/01 04:18:02;;;;;;;15.63;6.15;;;14.80;97.90;;;;;;4986172;28;20459;-64
2023/06/01 04:20:40;;;;;;;12.32;6.38;;;14.80;97.80;;;;;;4998449;28;20029;-64
2023/06/01 04:23:07;;;;;;;11.45;5.57;;;14.90;97.80;;;;;;4997561;28;20034;-64
2023/06/01 04:25:33;;;;;;;8.98;5.75;;;14.90;98.00;;;;;;5016514;28;20041;-64
2023/06/01 04:27:59;;;;;;;10.85;5.43;;;14.90;97.80;;;;;;5000936;28;20531;-64
2023/06/01 04:30:29;;;;;;;12.35;6.10;;;14.90;97.70;;;;;;5002813;28;20065;-64
2023/06/01 04:32:56;;;;;;;12.30;5.47;;;14.90;97.60;;;;;;4984724;28;20132;-64
2023/06/01 04:35:22;;;;;;;14.05;6.38;;;14.90;97.60;;;;;;4998160;28;20037;-64
2023/06/01 04:37:49;;;;;;;9.95;5.35;;;15.00;97.30;;;;;;5014928;28;20444;-64
2023/06/01 04:40:16;;;;;;;10.27;5.78;;;14.90;97.10;;;;;;4982232;28;20477;-64
2023/06/01 04:42:55;;;;;;;11.30;5.40;;;14.90;97.20;;;;;;5022885;28;20025;-64
2023/06/01 04:45:23;;;;;;;16.20;6.00;;;14.90;97.30;;;;;;4999819;28;20120;-64
2023/06/01 04:47:50;;;;;;;11.57;5.40;;;14.90;97.40;;;;;;5015632;28;20033;-64
2023/06/01 04:50:29;;;;;;;13.15;6.13;;;15.00;97.00;;;;;;5000709;28;20412;-64
2023/06/01 04:52:55;;;;;;;13.32;6.32;;;14.90;97.20;;;;;;5000771;28;20025;-64
2023/06/01 04:55:21;;;;;;;11.80;5.97;;;14.90;96.90;;;;;;5020009;28;20029;-64
2023/06/01 04:57:47;;;;;;;12.73;5.90;;;14.90;97.00;;;;;;5018747;28;20037;-64
2023/06/01 05:00:17;;;;;;;12.88;5.47;;;14.90;97.00;;;;;;4997379;28;20025;-64
2023/06/01 05:02:46;;;;;;;10.98;5.65;;;14.90;97.00;;;;;;5013660;28;20083;-64
2023/06/01 05:05:12;;;;;;;7.78;4.93;;;15.00;97.00;;;;;;4997896;28;20075;-64
2023/06/01 05:07:39;;;;;;;9.10;5.25;;;15.00;96.80;;;;;;5022051;28;20025;-64
2023/06/01 05:10:10;;;;;;;12.38;5.63;;;15.00;96.80;;;;;;5000222;28;20029;-64
2023/06/01 05:12:44;;;;;;;13.07;5.47;;;15.00;96.60;;;;;;5004320;28;20037;-64
2023/06/01 05:15:11;;;;;;;12.07;5.30;;;15.00;96.30;;;;;;4995276;28;20061;-64
2023/06/01 05:17:38;;;;;;;10.45;5.20;;;15.10;96.00;;;;;;5013321;28;20028;-64
2023/06/01 05:20:11;;;;;;;11.95;5.75;;;15.10;96.00;;;;;;5002187;28;20025;-64
2023/06/01 05:22:37;;;;;;;11.02;4.40;;;15.10;95.50;;;;;;5001844;28;20144;-64
2023/06/01 05:25:05;;;;;;;12.05;4.70;;;15.10;95.80;;;;;;5018116;28;20112;-64
2023/06/01 05:27:31;;;;;;;11.55;4.57;;;15.10;95.30;;;;;;4997319;28;20060;-64
2023/06/01 05:29:57;;;;;;;7.70;4.45;;;15.20;95.00;;;;;;4994445;28;20588;-64
2023/06/01 05:32:23;;;;;;;6.30;4.05;;;15.20;94.60;;;;;;5001624;28;20498;-64
2023/06/01 05:34:49;;;;;;;12.48;5.00;;;15.20;94.30;;;;;;5001412;28;20044;-64
2023/06/01 05:37:15;;;;;;;10.60;4.65;;;15.20;94.20;;;;;;4997668;28;20700;-63
2023/06/01 05:39:41;;;;;;;11.27;4.05;;;15.30;94.10;;;;;;5015323;28;20057;-63
2023/06/01 05:42:08;;;;;;;10.45;4.35;;;15.30;94.10;;;;;;4996228;28;20106;-63
2023/06/01 05:44:36;;;;;;;9.02;4.22;;;15.30;93.80;;;;;;5003271;28;20500;-62
2023/06/01 05:47:02;;;;;;;9.50;4.05;;;15.50;93.30;;;;;;5019142;28;20029;-62
2023/06/01 05:49:31;;;;;;;11.57;4.00;;;15.50;93.00;;;;;;5016805;28;20117;-62
2023/06/01 05:51:58;;;;;;;8.18;4.25;;;15.60;92.90;;;;;;4997294;28;20025;-63
2023/06/01 05:54:26;;;;;;;8.07;4.60;;;15.60;92.80;;;;;;4996032;28;20121;-62
2023/06/01 05:56:51;;;;;;;10.40;4.00;;;15.60;92.70;;;;;;4999814;28;20124;-63
2023/06/01 05:59:18;;;;;;;7.60;3.83;;;15.60;92.60;;;;;;4983943;28;20029;-63
2023/06/01 06:01:44;;;;;;;7.55;3.90;;;15.70;92.70;;;;;;5019095;28;20026;-64
2023/06/01 06:04:10;;;;;;;14.65;4.45;;;15.80;92.20;;;;;;5013774;28;20029;-63
2023/06/01 06:06:36;;;;;;;11.15;4.55;;;15.70;92.20;;;;;;5015202;28;20045;-63
2023/06/01 06:09:04;;;;;;;11.23;4.45;;;15.70;92.10;;;;;;5013750;28;20541;-63
2023/06/01 06:11:30;;;;;;;6.95;4.18;;;15.80;92.10;;;;;;5019058;28;20102;-63
2023/06/01 06:13:56;;;;;;;11.55;5.82;;;15.80;92.00;;;;;;5017921;28;20034;-63
2023/06/01 06:16:22;;;;;;;11.77;5.28;;;15.90;91.90;;;;;;5014371;28;20033;-65
2023/06/01 06:18:48;;;;;;;9.80;5.00;;;15.90;91.50;;;;;;5015236;28;20568;-64
2023/06/01 06:21:13;;;;;;;12.10;4.90;;;16.00;91.50;;;;;;5010694;28;20030;-64
2023/06/01 06:23:39;;;;;;;11.57;4.97;;;16.10;91.50;;;;;;5019787;28;20064;-63
2023/06/01 06:26:06;;;;;;;12.32;4.97;;;16.10;91.40;;;;;;5017784;28;20022;-63
2023/06/01 06:28:32;;;;;;;9.18;5.28;;;16.20;91.00;;;;;;5013826;28;20072;-64
2023/06/01 06:30:58;;;;;;;11.95;5.22;;;16.30;91.00;;;;;;5013870;28;20474;-64
2023/06/01 06:33:24;;;;;;;10.65;6.20;;;16.30;91.10;;;;;;5012844;28;20037;-64
2023/06/01 06:35:50;;;;;;;11.27;5.55;;;16.40;90.90;;;;;;5020811;28;20115;-65
2023/06/01 06:38:16;;;;;;;13.25;6.75;;;16.40;90.80;;;;;;5017363;28;20069;-63
2023/06/01 06:40:42;;;;;;;10.80;6.18;;;16.40;90.60;;;;;;5017396;28;20039;-64
2023/06/01 06:43:08;;;;;;;14.73;6.38;;;16.40;90.40;;;;;;5014890;28;20053;-64
2023/06/01 06:45:34;;;;;;;11.50;6.32;;;16.40;90.50;;;;;;5013231;28;20160;-63
2023/06/01 06:48:00;;;;;;;8.82;5.80;;;16.40;90.50;;;;;;5016268;28;20142;-64
2023/06/01 06:50:26;;;;;;;11.13;5.53;;;16.40;90.00;;;;;;5017583;28;20037;-64
2023/06/01 06:52:52;;;;;;;10.50;5.45;;;16.40;90.00;;;;;;5017141;28;20033;-64
2023/06/01 06:55:18;;;;;;;13.35;5.80;;;16.50;90.10;;;;;;5013418;28;20083;-64
2023/06/01 06:57:44;;;;;;;7.95;5.00;;;16.60;89.80;;;;;;5013644;28;20041;-65
2023/06/01 07:00:14;;;;;;;13.65;5.40;;;16.70;89.70;;;;;;5013135;28;20030;-64
2023/06/01 07:02:44;;;;;;;10.90;5.10;;;16.90;89.50;;;;;;5019073;28;20022;-64
2023/06/01 07:05:10;;;;;;;9.88;5.55;;;17.00;88.50;;;;;;5016286;28;20033;-63
2023/06/01 07:07:37;;;;;;;11.30;6.00;;;17.00;88.60;;;;;;5016089;28;20059;-64
2023/06/01 07:10:04;;;;;;;9.70;5.43;;;17.10;87.10;;;;;;5012957;28;20065;-64
2023/06/01 07:12:30;;;;;;;14.65;6.03;;;17.20;86.40;;;;;;5013111;28;20504;-64
2023/06/01 07:14:56;;;;;;;10.68;6.25;;;17.10;87.70;;;;;;5019926;28;20032;-63
2023/06/01 07:17:21;;;;;;;10.68;5.30;;;17.20;87.60;;;;;;5017350;28;20410;-64
2023/06/01 07:19:47;;;;;;;11.50;6.18;;;17.30;87.90;;;;;;5016935;28;20129;-64
2023/06/01 07:22:13;;;;;;;12.18;6.47;;;17.30;86.40;;;;;;5012334;28;20498;-62
2023/06/01 07:24:39;;;;;;;10.70;6.22;;;17.30;86.00;;;;;;5013876;28;20037;-63
2023/06/01 07:27:05;;;;;;;12.82;6.07;;;17.20;86.50;;;;;;5016852;28;20041;-63
2023/06/01 07:29:32;;;;;;;15.25;7.88;;;17.20;86.50;;;;;;5019355;28;20045;-64
2023/06/01 07:31:57;;;;;;;10.50;7.07;;;17.20;85.90;;;;;;5021930;28;20040;-63
2023/06/01 07:34:24;;;;;;;8.95;5.97;;;17.30;86.80;;;;;;5018078;28;20042;-64
2023/06/01 07:36:50;;;;;;;11.98;6.65;;;17.40;85.70;;;;;;5016075;28;20797;-63
2023/06/01 07:39:16;;;;;;;11.88;7.38;;;17.50;84.40;;;;;;5020399;28;20045;-63
2023/06/01 07:41:44;;;;;;;13.30;6.82;;;17.60;84.90;;;;;;5023059;28;20385;-64
2023/06/01 07:44:10;;;;;;;13.00;7.00;;;17.70;84.20;;;;;;5018317;28;20107;-63
2023/06/01 07:46:36;;;;;;;15.60;8.07;;;17.80;83.80;;;;;;5019317;28;20034;-64
2023/06/01 07:49:03;;;;;;;11.23;8.18;;;17.70;83.30;;;;;;5017566;28;20022;-64
2023/06/01 07:51:29;;;;;;;13.43;7.72;;;17.70;83.30;;;;;;5019923;28;20782;-64
2023/06/01 07:53:57;;;;;;;16.33;7.57;;;17.70;83.20;;;;;;5021583;28;20034;-64
2023/06/01 07:56:27;;;;;;;10.70;7.40;;;17.70;83.40;;;;;;5018026;28;20073;-63
2023/06/01 07:58:53;;;;;;;14.27;7.78;;;17.70;83.10;;;;;;5017047;28;20037;-64
2023/06/01 08:01:19;;;;;;;10.55;7.10;;;17.70;83.30;;;;;;5015504;28;20030;-64
2023/06/01 08:03:45;;;;;;;12.50;7.50;;;17.80;82.50;;;;;;5016354;28;20401;-64
2023/06/01 08:06:11;;;;;;;11.18;7.43;;;17.90;82.40;;;;;;5021904;28;20463;-64
2023/06/01 08:08:38;;;;;;;16.02;7.18;;;17.90;82.40;;;;;;5020654;28;20021;-64
2023/06/01 08:11:03;;;;;;;12.75;7.15;;;17.90;82.70;;;;;;5021391;28;20214;-64
2023/06/01 08:13:29;;;;;;;12.60;8.07;;;18.10;82.30;;;;;;5017965;28;20128;-65
2023/06/01 08:15:55;;;;;;;11.27;7.22;;;18.10;81.50;;;;;;5014283;28;20029;-64
2023/06/01 08:18:22;;;;;;;12.35;7.10;;;18.10;81.80;;;;;;5006998;28;20044;-63
2023/06/01 08:20:48;;;;;;;11.70;7.68;;;18.20;80.70;;;;;;5020927;28;20069;-63
2023/06/01 08:23:16;;;;;;;10.15;7.60;;;18.20;81.20;;;;;;5014287;28;20146;-63
2023/06/01 08:25:43;;;;;;;10.95;7.22;;;18.30;80.80;;;;;;5016891;28;20477;-63
2023/06/01 08:28:09;;;;;;;12.70;8.05;;;18.30;80.90;;;;;;5012031;28;20577;-63
2023/06/01 08:30:35;;;;;;;13.75;8.60;;;18.40;80.50;;;;;;5022593;28;20128;-63
2023/06/01 08:33:02;;;;;;;14.32;8.60;;;18.40;79.40;;;;;;5020201;28;20109;-63
2023/06/01 08:35:30;;;;;;;11.35;8.48;;;18.40;79.70;;;;;;5018919;28;21131;-63
2023/06/01 08:37:56;;;;;;;13.80;9.07;;;18.40;80.20;;;;;;5018651;28;20037;-62
2023/06/01 08:40:22;;;;;;;15.23;9.05;;;18.50;79.50;;;;;;5013119;28;20040;-63
2023/06/01 08:42:59;;;;;;;14.60;8.85;;;18.50;79.00;;;;;;5016003;28;20136;-63
2023/06/01 08:45:26;;;;;;;15.00;9.05;;;18.60;78.80;;;;;;5021338;28;20033;-63
2023/06/01 08:47:57;;;;;;;14.38;8.50;;;18.70;78.50;;;;;;5018990;28;20552;-63
2023/06/01 08:50:25;;;;;;;13.93;9.38;;;18.80;78.70;;;;;;5016525;28;20026;-63
2023/06/01 08:52:56;;;;;;;16.52;9.07;;;18.90;79.00;;;;;;5015094;28;20034;-63
2023/06/01 08:55:22;;;;;;;16.67;10.20;;;19.00;77.90;;;;;;5020829;28;20029;-63
2023/06/01 08:57:48;;;;;;;12.13;8.45;;;19.10;77.50;;;;;;5021162;28;20148;-63
2023/06/01 09:00:17;;;;;;;11.23;8.52;;;19.20;77.70;;;;;;5017869;28;20033;-63
2023/06/01 09:02:43;;;;;;;15.45;8.15;;;19.30;77.10;;;;;;5017001;28;20029;-63
2023/06/01 09:05:11;;;;;;;15.55;9.05;;;19.30;76.40;;;;;;5012410;28;20037;-63
2023/06/01 09:07:38;;;;;;;15.07;8.50;;;19.40;76.50;;;;;;5013957;28;20029;-63
2023/06/01 09:10:05;;;;;;;11.60;7.03;;;19.40;76.30;;;;;;5019939;28;20037;-63
2023/06/01 09:12:34;;;;;;;14.40;7.45;;;19.40;76.00;;;;;;5018604;28;20025;-65
2023/06/01 09:15:16;;;;;;;11.55;7.03;;;19.50;76.60;;;;;;5016285;28;20146;-63
2023/06/01 09:17:43;;;;;;;12.98;6.93;;;19.50;76.40;;;;;;5013686;28;20063;-64
2023/06/01 09:20:14;;;;;;;9.68;6.00;;;19.60;75.90;;;;;;5011585;28;20076;-63
2023/06/01 09:22:45;;;;;;;16.45;5.75;;;19.70;76.00;;;;;;5021001;28;20025;-63
2023/06/01 09:25:15;;;;;;;12.77;6.82;;;19.80;74.80;;;;;;5017600;28;20671;-63
2023/06/01 09:27:49;;;;;;;9.35;5.70;;;19.90;74.10;;;;;;5019214;28;20041;-64
2023/06/01 09:30:17;;;;;;;10.63;5.57;;;20.00;75.10;;;;;;5013028;28;20049;-63
2023/06/01 09:32:47;;;;;;;16.92;5.22;;;20.20;74.70;;;;;;5014292;28;20029;-63
2023/06/01 09:35:13;;;;;;;8.55;4.93;;;20.40;74.90;;;;;;5020228;28;20068;-64
2023/06/01 09:37:53;;;;;;;9.38;4.72;;;20.70;72.50;;;;;;5020212;28;20140;-64
2023/06/01 09:40:19;;;;;;;7.60;4.22;;;21.00;70.40;;;;;;5015331;28;20029;-63
2023/06/01 09:42:49;;;;;;;10.40;3.78;;;21.20;69.00;;;;;;5014439;28;20528;-64
2023/06/01 09:45:20;;;;;;;10.15;3.97;;;21.20;69.50;;;;;;5011447;28;20029;-63
2023/06/01 09:47:50;;;;;;;10.52;4.03;;;21.30;68.80;;;;;;5019907;28;20091;-64
2023/06/01 09:50:37;;;;;;;7.20;4.38;;;21.20;69.00;;;;;;5017303;28;20044;-63
2023/06/01 09:53:04;;;;;;;8.70;3.58;;;21.20;69.70;;;;;;5014589;28;20444;-64
2023/06/01 09:55:31;;;;;;;12.43;3.67;;;21.30;67.80;;;;;;5013959;28;20036;-63
2023/06/01 09:58:20;;;;;;;9.38;3.40;;;21.50;67.40;;;;;;5011878;28;20037;-64
2023/06/01 10:00:50;;;;;;;9.68;3.53;;;21.50;66.20;;;;;;5001905;28;20025;-66
2023/06/01 10:03:19;;;;;;;7.85;3.80;;;21.70;65.60;;;;;;5016878;28;20100;-64
2023/06/01 10:05:46;;;;;;;8.50;3.40;;;22.00;64.10;;;;;;5017651;28;20921;-63
2023/06/01 10:08:13;;;;;;;6.00;3.10;;;22.10;64.00;;;;;;5012357;28;20029;-64
2023/06/01 10:10:43;;;;;;;10.18;4.07;;;22.10;63.20;;;;;;5013687;28;20520;-63
2023/06/01 10:13:10;;;;;;;9.02;3.70;;;22.20;63.20;;;;;;5016864;28;20412;-63
2023/06/01 10:15:36;;;;;;;14.98;4.45;;;22.20;63.60;;;;;;5018627;28;20086;-63
2023/06/01 10:18:06;;;;;;;6.57;3.47;;;22.10;63.60;;;;;;5014996;28;20087;-64
2023/06/01 10:20:33;;;;;;;5.95;3.28;;;22.00;62.70;;;;;;5015478;28;20356;-64
2023/06/01 10:23:00;;;;;;;8.07;3.28;;;21.90;64.00;;;;;;5011512;28;20088;-64
2023/06/01 10:25:55;;;;;;;6.80;2.83;;;22.00;63.90;;;;;;5018893;28;20101;-65
2023/06/01 10:28:23;;;;;;;9.55;3.40;;;22.10;62.50;;;;;;5014650;28;20042;-63
2023/06/01 10:31:27;;;;;;;5.43;3.10;;;22.30;62.10;;;;;;5017054;28;20059;-64
2023/06/01 10:33:55;;;;;;;8.63;3.05;;;22.50;61.70;;;;;;5014078;28;20038;-64
2023/06/01 10:36:21;;;;;;;7.60;3.30;;;22.50;61.90;;;;;;5011751;28;20038;-63
2023/06/01 10:38:46;;;;;;;4.95;2.88;;;22.60;62.40;;;;;;5019145;28;20041;-63
2023/06/01 10:41:27;;;;;;;9.93;3.03;;;22.60;62.00;;;;;;5017342;28;20072;-64
2023/06/01 10:43:54;;;;;;;6.38;3.10;;;22.70;61.60;;;;;;5014829;28;20591;-58
2023/06/01 10:46:36;;;;;;;4.80;3.00;;;22.70;59.90;;;;;;5016194;28;20112;-58
2023/06/01 10:49:03;;;;;;;4.15;2.67;;;22.70;60.20;;;;;;5013636;28;20117;-60
2023/06/01 10:51:29;;;;;;;7.35;2.70;;;22.80;60.50;;;;;;5019450;28;20030;-59
2023/06/01 10:54:15;;;;;;;7.90;3.13;;;23.10;59.90;;;;;;5018251;28;20051;-60
2023/06/01 10:56:40;;;;;;;4.97;3.13;;;23.40;59.00;;;;;;5015621;28;20112;-60
2023/06/01 10:59:07;;;;;;;6.55;2.90;;;23.40;58.90;;;;;;5016853;28;20799;-59
2023/06/01 11:01:43;;;;;;;7.68;3.35;;;23.20;59.30;;;;;;5013432;28;20132;-60
2023/06/01 11:04:10;;;;;;;6.63;3.05;;;23.10;60.20;;;;;;5018632;28;20036;-60
2023/06/01 11:06:39;;;;;;;4.72;3.00;;;22.90;60.00;;;;;;5023279;28;20033;-60
2023/06/01 11:09:10;;;;;;;10.15;2.85;;;22.70;60.50;;;;;;5018310;28;20055;-61
2023/06/01 11:11:48;;;;;;;6.47;2.85;;;22.60;61.70;;;;;;5018310;28;20405;-60
2023/06/01 11:14:16;;;;;;;6.80;3.05;;;22.60;60.80;;;;;;5014096;28;20026;-58
2023/06/01 11:16:42;;;;;;;5.90;2.70;;;22.50;61.10;;;;;;5019848;28;20033;-59
2023/06/01 11:19:08;;;;;;;7.15;2.80;;;22.50;61.40;;;;;;5021769;28;20421;-61
2023/06/01 11:21:37;;;;;;;14.90;4.18;;;22.40;61.50;;;;;;5018702;28;20091;-59
2023/06/01 11:24:15;;;;;;;12.15;3.63;;;22.40;62.20;;;;;;5015947;28;20053;-59
2023/06/01 11:26:45;;;;;;;11.15;3.65;;;22.40;61.90;;;;;;5016474;28;20034;-59
2023/06/01 11:29:15;;;;;;;8.88;4.05;;;22.40;61.90;;;;;;5019803;28;20090;-58
2023/06/01 11:31:55;;;;;;;12.35;4.05;;;22.30;61.50;;;;;;5020934;28;20841;-59
2023/06/01 11:34:30;;;;;;;7.22;3.78;;;22.30;61.20;;;;;;5018587;28;20026;-59
2023/06/01 11:36:58;;;;;;;9.02;3.25;;;22.30;62.10;;;;;;5017579;28;20033;-59
2023/06/01 11:39:30;;;;;;;7.18;3.83;;;22.30;61.70;;;;;;5014332;28;20042;-59
2023/06/01 11:42:12;;;;;;;7.82;3.83;;;22.40;62.50;;;;;;5019713;28;20501;-59
2023/06/01 11:44:43;;;;;;;7.95;3.40;;;22.40;61.80;;;;;;5018878;28;20503;-60
2023/06/01 11:47:10;;;;;;;9.05;2.80;;;22.40;61.30;;;;;;5017758;28;20433;-57
2023/06/01 11:49:50;;;;;;;6.45;3.22;;;22.40;61.50;;;;;;5020762;28;20037;-59
2023/06/01 11:52:17;;;;;;;7.20;2.88;;;22.40;61.90;;;;;;5013573;28;20061;-58
2023/06/01 11:54:43;;;;;;;8.68;3.10;;;22.40;62.00;;;;;;5019694;28;20103;-59
2023/06/01 11:57:10;;;;;;;10.52;3.85;;;22.30;61.70;;;;;;5020315;28;20041;-59
2023/06/01 11:59:45;;;;;;;8.52;3.15;;;22.50;61.80;;;;;;5019132;28;20095;-59
2023/06/01 12:02:18;;;;;;;11.27;3.30;;;22.50;60.80;;;;;;5014962;28;20037;-59
2023/06/01 12:05:06;;;;;;;15.43;4.20;;;22.50;60.40;;;;;;5016262;28;20068;-58
2023/06/01 12:07:46;;;;;;;9.30;3.65;;;22.50;59.80;;;;;;5018671;28;20104;-59
2023/06/01 12:10:16;;;;;;;8.07;4.05;;;22.50;59.80;;;;;;5019466;28;20037;-57
2023/06/01 12:12:43;;;;;;;7.72;4.07;;;22.50;59.80;;;;;;5019569;28;20178;-57
2023/06/01 12:15:14;;;;;;;9.77;3.92;;;22.50;59.70;;;;;;5014365;28;20117;-58
2023/06/01 12:17:51;;;;;;;9.85;3.25;;;22.50;59.10;;;;;;5019454;28;20039;-58
2023/06/01 12:20:30;;;;;;;10.40;4.07;;;22.50;58.90;;;;;;5020992;28;20037;-56
2023/06/01 12:22:59;;;;;;;9.93;3.75;;;22.50;59.30;;;;;;5021230;28;20040;-57
2023/06/01 12:25:25;;;;;;;20.38;5.78;;;22.40;59.30;;;;;;4999197;28;20514;-55
2023/06/01 12:28:01;;;;;;;12.30;5.18;;;22.50;59.40;;;;;;5014214;28;20108;-61
2023/06/01 12:30:27;;;;;;;11.10;4.85;;;22.60;59.10;;;;;;5015405;28;20842;-59
2023/06/01 12:32:52;;;;;;;17.20;5.20;;;22.70;59.40;;;;;;5019430;28;20037;-59
2023/06/01 12:35:18;;;;;;;16.40;5.78;;;22.70;59.40;;;;;;5020820;28;20025;-60
2023/06/01 12:37:44;;;;;;;11.07;5.53;;;22.80;58.80;;;;;;5019291;28;20037;-60
2023/06/01 12:40:10;;;;;;;13.13;7.32;;;22.80;58.50;;;;;;4998048;28;20526;-59
2023/06/01 12:42:38;;;;;;;16.05;8.65;;;22.80;59.10;;;;;;5016980;28;20114;-60
2023/06/01 12:45:07;;;;;;;16.38;9.38;;;22.80;59.10;;;;;;5015414;28;20040;-60
2023/06/01 12:47:40;;;;;;;21.80;11.68;;;22.80;58.50;;;;;;5014051;28;20116;-59
2023/06/01 12:50:11;;;;;;;20.55;11.82;;;22.90;59.20;;;;;;5018511;28;20037;-59